createdAt,value
2023-06-09T00:00:22.902Z,4.60
2023-06-09T00:01:26.461Z,4.53
2023-06-09T00:02:28.632Z,4.73
2023-06-09T00:03:31.736Z,5.03
2023-06-09T00:04:36.668Z,4.70
2023-06-09T00:05:41.146Z,4.57
2023-06-09T00:06:44.257Z,4.43
2023-06-09T00:07:49.400Z,4.40
2023-06-09T00:08:52.541Z,4.63
2023-06-09T00:09:54.570Z,4.50
2023-06-09T00:10:56.384Z,4.53
2023-06-09T00:11:58.533Z,4.65
2023-06-09T00:13:01.596Z,4.30
2023-06-09T00:14:03.794Z,5.10
2023-06-09T00:15:06.722Z,4.53
2023-06-09T00:16:09.216Z,5.20
2023-06-09T00:17:11.309Z,5.13
2023-06-09T00:18:17.154Z,5.03
2023-06-09T00:19:19.408Z,5.40
2023-06-09T00:20:21.898Z,4.80
2023-06-09T00:21:26.455Z,5.30
2023-06-09T00:22:28.656Z,5.07
2023-06-09T00:23:30.607Z,4.90
2023-06-09T00:24:32.491Z,4.93
2023-06-09T00:25:34.481Z,4.85
2023-06-09T00:26:36.367Z,4.95
2023-06-09T00:27:38.367Z,4.88
2023-06-09T00:28:41.139Z,4.70
2023-06-09T00:29:42.923Z,4.78
2023-06-09T00:30:44.686Z,4.75
2023-06-09T00:31:46.649Z,4.57
2023-06-09T00:32:48.516Z,4.88
2023-06-09T00:33:50.347Z,4.83
2023-06-09T00:34:52.132Z,4.63
2023-06-09T00:35:53.933Z,4.93
2023-06-09T00:36:55.813Z,5.10
2023-06-09T00:37:57.589Z,5.10
2023-06-09T00:38:59.369Z,5.40
2023-06-09T00:40:01.365Z,5.20
2023-06-09T00:41:03.210Z,5.38
2023-06-09T00:42:06.327Z,5.32
2023-06-09T00:43:08.207Z,5.13
2023-06-09T00:44:12.175Z,5.97
2023-06-09T00:45:15.102Z,5.40
2023-06-09T00:46:16.941Z,5.57
2023-06-09T00:47:18.937Z,5.03
2023-06-09T00:48:21.051Z,4.90
2023-06-09T00:49:23.818Z,5.32
2023-06-09T00:50:25.737Z,5.95
2023-06-09T00:51:28.170Z,5.50
2023-06-09T00:52:30.010Z,5.20
2023-06-09T00:53:32.242Z,5.47
2023-06-09T00:54:34.534Z,5.10
2023-06-09T00:55:40.653Z,5.20
2023-06-09T00:56:42.940Z,5.55
2023-06-09T00:57:48.284Z,5.57
2023-06-09T00:58:51.801Z,5.32
2023-06-09T00:59:53.869Z,5.00
2023-06-09T01:00:58.489Z,5.10
2023-06-09T01:02:01.812Z,5.20
2023-06-09T01:03:04.358Z,5.38
2023-06-09T01:04:06.324Z,5.45
2023-06-09T01:05:10.041Z,6.10
2023-06-09T01:06:25.033Z,5.18
2023-06-09T01:07:39.806Z,5.50
2023-06-09T01:08:51.855Z,5.80
2023-06-09T01:10:10.490Z,5.80
2023-06-09T01:11:26.784Z,5.60
2023-06-09T01:12:51.612Z,5.95
2023-06-09T01:14:24.744Z,5.60
2023-06-09T01:15:37.489Z,5.40
2023-06-09T01:16:49.076Z,5.45
2023-06-09T01:18:03.430Z,5.40
2023-06-09T01:19:12.551Z,6.07
2023-06-09T01:20:16.983Z,5.90
2023-06-09T01:21:42.014Z,5.13
2023-06-09T01:22:53.373Z,6.00
2023-06-09T01:24:31.361Z,5.32
2023-06-09T01:25:44.602Z,4.93
2023-06-09T01:26:51.682Z,5.55
2023-06-09T01:27:58.757Z,6.18
2023-06-09T01:29:01.182Z,5.10
2023-06-09T01:30:03.987Z,5.60
2023-06-09T01:31:06.316Z,5.60
2023-06-09T01:32:10.476Z,5.30
2023-06-09T01:33:16.590Z,5.80
2023-06-09T01:34:21.428Z,5.80
2023-06-09T01:35:23.325Z,5.60
2023-06-09T01:36:25.208Z,5.63
2023-06-09T01:37:27.182Z,5.13
2023-06-09T01:38:29.683Z,5.50
2023-06-09T01:39:31.595Z,5.93
2023-06-09T01:40:33.884Z,5.30
2023-06-09T01:41:35.751Z,5.28
2023-06-09T01:42:37.739Z,5.28
2023-06-09T01:43:39.613Z,6.07
2023-06-09T01:44:41.409Z,5.05
2023-06-09T01:45:43.207Z,5.90
2023-06-09T01:46:45.362Z,5.78
2023-06-09T01:47:47.174Z,6.15
2023-06-09T01:49:12.858Z,6.28
2023-06-09T01:50:25.121Z,6.25
2023-06-09T01:51:53.476Z,5.60
2023-06-09T01:53:03.430Z,6.00
2023-06-09T01:54:11.122Z,5.90
2023-06-09T01:55:19.913Z,5.63
2023-06-09T01:56:52.562Z,6.32
2023-06-09T01:58:00.597Z,5.70
2023-06-09T01:59:08.175Z,5.97
2023-06-09T02:00:11.341Z,5.65
2023-06-09T02:01:17.958Z,5.30
2023-06-09T02:02:21.484Z,5.53
2023-06-09T02:03:25.033Z,6.20
2023-06-09T02:04:29.689Z,5.30
2023-06-09T02:05:33.130Z,5.60
2023-06-09T02:06:35.393Z,6.40
2023-06-09T02:07:37.958Z,6.32
2023-06-09T02:08:40.720Z,6.10
2023-06-09T02:09:42.547Z,5.95
2023-06-09T02:10:44.944Z,6.25
2023-06-09T02:11:53.202Z,5.55
2023-06-09T02:12:55.131Z,6.28
2023-06-09T02:13:57.439Z,6.20
2023-06-09T02:15:00.114Z,6.38
2023-06-09T02:16:02.023Z,5.93
2023-06-09T02:17:04.479Z,6.00
2023-06-09T02:18:06.396Z,5.80
2023-06-09T02:19:08.788Z,6.18
2023-06-09T02:20:12.328Z,6.03
2023-06-09T02:21:14.153Z,5.90
2023-06-09T02:22:16.035Z,5.75
2023-06-09T02:23:23.017Z,5.82
2023-06-09T02:24:29.414Z,6.20
2023-06-09T02:25:33.331Z,6.30
2023-06-09T02:26:36.435Z,6.28
2023-06-09T02:27:38.223Z,5.88
2023-06-09T02:28:40.281Z,5.90
2023-06-09T02:29:42.081Z,5.68
2023-06-09T02:30:44.968Z,5.43
2023-06-09T02:31:46.865Z,5.53
2023-06-09T02:32:49.061Z,5.50
2023-06-09T02:33:50.933Z,5.47
2023-06-09T02:34:53.602Z,5.37
2023-06-09T02:35:55.625Z,5.78
2023-06-09T02:36:59.365Z,5.20
2023-06-09T02:38:06.393Z,5.90
2023-06-09T02:39:08.176Z,5.28
2023-06-09T02:40:11.246Z,5.30
2023-06-09T02:41:13.029Z,4.88
2023-06-09T02:42:14.844Z,4.93
2023-06-09T02:43:16.701Z,5.30
2023-06-09T02:44:18.559Z,4.93
2023-06-09T02:45:20.544Z,4.73
2023-06-09T02:46:26.285Z,5.10
2023-06-09T02:47:28.241Z,4.93
2023-06-09T02:48:30.068Z,5.32
2023-06-09T02:49:31.908Z,5.10
2023-06-09T02:50:33.847Z,4.88
2023-06-09T02:51:36.167Z,4.75
2023-06-09T02:52:38.062Z,5.97
2023-06-09T02:53:39.931Z,5.25
2023-06-09T02:54:41.781Z,5.28
2023-06-09T02:55:46.294Z,4.80
2023-06-09T02:56:48.473Z,4.80
2023-06-09T02:57:50.786Z,5.03
2023-06-09T02:58:52.841Z,5.47
2023-06-09T02:59:54.973Z,5.50
2023-06-09T03:00:56.795Z,6.20
2023-06-09T03:01:59.950Z,5.20
2023-06-09T03:03:02.978Z,5.32
2023-06-09T03:04:08.813Z,5.47
2023-06-09T03:05:11.762Z,4.65
2023-06-09T03:06:14.926Z,5.20
2023-06-09T03:07:17.537Z,5.60
2023-06-09T03:08:19.325Z,4.60
2023-06-09T03:09:21.181Z,5.07
2023-06-09T03:10:23.122Z,5.00
2023-06-09T03:11:24.917Z,5.25
2023-06-09T03:12:27.196Z,4.93
2023-06-09T03:13:29.000Z,5.03
2023-06-09T03:14:31.238Z,4.75
2023-06-09T03:15:33.230Z,5.43
2023-06-09T03:16:35.204Z,5.17
2023-06-09T03:17:37.054Z,5.50
2023-06-09T03:18:38.836Z,5.00
2023-06-09T03:19:40.981Z,5.10
2023-06-09T03:20:43.292Z,5.10
2023-06-09T03:21:45.173Z,4.85
2023-06-09T03:22:48.333Z,4.80
2023-06-09T03:23:50.289Z,5.63
2023-06-09T03:24:52.581Z,5.05
2023-06-09T03:25:55.209Z,5.30
2023-06-09T03:26:57.032Z,4.93
2023-06-09T03:27:58.830Z,5.18
2023-06-09T03:29:00.621Z,5.78
2023-06-09T03:30:02.418Z,4.90
2023-06-09T03:31:04.610Z,5.20
2023-06-09T03:32:06.904Z,5.40
2023-06-09T03:33:10.190Z,5.03
2023-06-09T03:34:12.189Z,5.03
2023-06-09T03:35:14.406Z,5.35
2023-06-09T03:36:16.412Z,5.03
2023-06-09T03:37:18.255Z,5.57
2023-06-09T03:38:20.095Z,5.18
2023-06-09T03:39:21.929Z,5.55
2023-06-09T03:40:26.478Z,5.60
2023-06-09T03:41:28.447Z,5.60
2023-06-09T03:42:30.233Z,5.40
2023-06-09T03:43:32.280Z,5.32
2023-06-09T03:44:34.086Z,4.95
2023-06-09T03:45:35.898Z,5.32
2023-06-09T03:46:37.713Z,5.13
2023-06-09T03:47:40.063Z,5.40
2023-06-09T03:48:42.014Z,5.20
2023-06-09T03:49:43.832Z,5.10
2023-06-09T03:50:45.655Z,4.93
2023-06-09T03:51:47.565Z,5.05
2023-06-09T03:52:49.379Z,5.18
2023-06-09T03:53:53.982Z,5.50
2023-06-09T03:54:57.213Z,5.65
2023-06-09T03:56:00.360Z,5.18
2023-06-09T03:57:02.311Z,5.30
2023-06-09T03:58:04.070Z,5.07
2023-06-09T03:59:05.935Z,5.22
2023-06-09T04:00:08.929Z,5.07
2023-06-09T04:01:12.084Z,4.50
2023-06-09T04:02:14.071Z,4.50
2023-06-09T04:03:15.964Z,4.68
2023-06-09T04:04:17.874Z,4.97
2023-06-09T04:05:19.767Z,4.82
2023-06-09T04:06:22.510Z,4.90
2023-06-09T04:07:24.291Z,4.53
2023-06-09T04:08:26.769Z,4.93
2023-06-09T04:09:28.680Z,5.05
2023-06-09T04:10:30.675Z,4.90
2023-06-09T04:11:33.899Z,5.13
2023-06-09T04:12:35.697Z,5.95
2023-06-09T04:13:37.483Z,4.78
2023-06-09T04:14:39.330Z,5.47
2023-06-09T04:15:41.149Z,5.30
2023-06-09T04:16:43.160Z,5.15
2023-06-09T04:17:45.136Z,5.55
2023-06-09T04:18:47.683Z,5.10
2023-06-09T04:19:49.893Z,5.50
2023-06-09T04:20:51.867Z,5.10
2023-06-09T04:21:53.808Z,5.68
2023-06-09T04:22:55.999Z,6.47
2023-06-09T04:23:57.834Z,6.07
2023-06-09T04:24:59.749Z,5.47
2023-06-09T04:26:01.663Z,5.65
2023-06-09T04:27:04.874Z,5.82
2023-06-09T04:28:06.804Z,5.82
2023-06-09T04:29:11.966Z,5.30
2023-06-09T04:30:13.965Z,5.70
2023-06-09T04:31:19.852Z,4.90
2023-06-09T04:32:22.671Z,5.30
2023-06-09T04:33:25.498Z,5.57
2023-06-09T04:34:39.183Z,5.43
2023-06-09T04:35:43.342Z,5.47
2023-06-09T04:36:47.826Z,5.55
2023-06-09T04:37:50.936Z,5.30
2023-06-09T04:38:53.047Z,5.20
2023-06-09T04:39:55.842Z,5.00
2023-06-09T04:40:58.833Z,5.40
2023-06-09T04:42:04.525Z,6.15
2023-06-09T04:43:08.279Z,4.93
2023-06-09T04:44:10.996Z,5.38
2023-06-09T04:45:13.095Z,5.85
2023-06-09T04:46:14.976Z,5.63
2023-06-09T04:47:20.042Z,5.90
2023-06-09T04:48:22.701Z,5.80
2023-06-09T04:49:24.919Z,5.57
2023-06-09T04:50:30.179Z,5.70
2023-06-09T04:51:46.595Z,5.60
2023-06-09T04:52:48.658Z,5.85
2023-06-09T04:53:50.459Z,4.95
2023-06-09T04:54:52.536Z,5.78
2023-06-09T04:55:55.190Z,5.72
2023-06-09T04:57:00.236Z,5.88
2023-06-09T04:58:02.172Z,6.10
2023-06-09T04:59:05.215Z,6.20
2023-06-09T05:00:09.081Z,6.22
2023-06-09T05:01:11.288Z,6.63
2023-06-09T05:02:13.325Z,6.45
2023-06-09T05:03:18.548Z,5.70
2023-06-09T05:04:20.687Z,6.75
2023-06-09T05:05:22.656Z,6.40
2023-06-09T05:06:24.551Z,6.10
2023-06-09T05:07:26.401Z,6.60
2023-06-09T05:08:28.249Z,6.30
2023-06-09T05:09:30.099Z,6.22
2023-06-09T05:10:32.323Z,6.00
2023-06-09T05:11:35.469Z,6.83
2023-06-09T05:12:38.280Z,6.30
2023-06-09T05:13:40.749Z,6.60
2023-06-09T05:14:45.474Z,6.65
2023-06-09T05:15:48.445Z,6.32
2023-06-09T05:16:50.456Z,7.00
2023-06-09T05:17:52.787Z,6.65
2023-06-09T05:18:55.353Z,6.32
2023-06-09T05:19:57.387Z,7.05
2023-06-09T05:20:59.240Z,6.78
2023-06-09T05:22:01.106Z,6.73
2023-06-09T05:23:03.711Z,7.75
2023-06-09T05:24:06.560Z,6.60
2023-06-09T05:25:17.288Z,6.68
2023-06-09T05:26:20.582Z,6.63
2023-06-09T05:27:22.350Z,6.60
2023-06-09T05:28:24.168Z,6.57
2023-06-09T05:29:26.475Z,6.88
2023-06-09T05:30:28.283Z,7.05
2023-06-09T05:31:31.097Z,7.00
2023-06-09T05:32:33.295Z,6.87
2023-06-09T05:33:35.290Z,6.28
2023-06-09T05:34:37.324Z,6.85
2023-06-09T05:35:39.175Z,6.78
2023-06-09T05:36:40.961Z,6.30
2023-06-09T05:37:53.656Z,6.10
2023-06-09T05:38:55.761Z,6.80
2023-06-09T05:39:57.805Z,5.95
2023-06-09T05:40:59.738Z,6.13
2023-06-09T05:42:01.762Z,6.60
2023-06-09T05:43:03.579Z,6.40
2023-06-09T05:44:05.479Z,6.03
2023-06-09T05:45:08.171Z,6.82
2023-06-09T05:46:10.902Z,6.38
2023-06-09T05:47:13.439Z,6.35
2023-06-09T05:48:15.430Z,6.32
2023-06-09T05:49:17.580Z,5.95
2023-06-09T05:50:19.483Z,6.13
2023-06-09T05:51:21.339Z,6.03
2023-06-09T05:52:23.200Z,5.90
2023-06-09T05:53:26.186Z,6.27
2023-06-09T05:54:28.065Z,6.47
2023-06-09T05:55:29.935Z,6.60
2023-06-09T05:56:31.868Z,6.05
2023-06-09T05:57:34.410Z,5.80
2023-06-09T05:58:37.584Z,5.40
2023-06-09T05:59:40.691Z,5.72
2023-06-09T06:00:42.748Z,6.15
2023-06-09T06:01:44.587Z,6.15
2023-06-09T06:02:46.567Z,5.80
2023-06-09T06:03:48.917Z,5.77
2023-06-09T06:04:51.152Z,6.43
2023-06-09T06:05:53.395Z,5.88
2023-06-09T06:06:55.214Z,6.13
2023-06-09T06:08:02.770Z,5.80
2023-06-09T06:09:09.194Z,6.07
2023-06-09T06:10:11.515Z,5.68
2023-06-09T06:11:13.918Z,5.85
2023-06-09T06:12:15.882Z,6.25
2023-06-09T06:13:17.766Z,6.10
2023-06-09T06:14:19.592Z,6.37
2023-06-09T06:15:22.248Z,6.13
2023-06-09T06:16:24.209Z,5.85
2023-06-09T06:17:26.823Z,5.75
2023-06-09T06:18:28.695Z,6.10
2023-06-09T06:19:30.605Z,6.07
2023-06-09T06:20:32.526Z,5.93
2023-06-09T06:21:34.377Z,6.32
2023-06-09T06:22:36.319Z,6.07
2023-06-09T06:23:38.635Z,6.07
2023-06-09T06:24:40.964Z,6.93
2023-06-09T06:25:43.009Z,5.97
2023-06-09T06:26:45.171Z,5.70
2023-06-09T06:27:48.505Z,6.00
2023-06-09T06:28:51.437Z,6.50
2023-06-09T06:29:55.743Z,5.90
2023-06-09T06:30:57.769Z,6.15
2023-06-09T06:31:59.665Z,6.13
2023-06-09T06:33:01.435Z,5.70
2023-06-09T06:34:06.616Z,5.90
2023-06-09T06:35:10.170Z,6.07
2023-06-09T06:36:12.528Z,6.55
2023-06-09T06:37:14.368Z,6.15
2023-06-09T06:38:16.232Z,6.40
2023-06-09T06:39:18.052Z,5.90
2023-06-09T06:40:19.888Z,6.05
2023-06-09T06:41:21.673Z,6.38
2023-06-09T06:42:23.564Z,6.90
2023-06-09T06:43:25.423Z,6.90
2023-06-09T06:44:27.260Z,6.43
2023-06-09T06:45:29.369Z,5.80
2023-06-09T06:46:32.741Z,5.82
2023-06-09T06:47:34.640Z,6.10
2023-06-09T06:48:39.819Z,6.05
2023-06-09T06:49:41.654Z,6.80
2023-06-09T06:50:43.479Z,6.07
2023-06-09T06:51:45.577Z,6.45
2023-06-09T06:52:49.524Z,6.20
2023-06-09T06:53:51.380Z,6.00
2023-06-09T06:54:53.144Z,6.05
2023-06-09T06:55:55.130Z,6.60
2023-06-09T06:56:56.946Z,5.90
2023-06-09T06:57:58.762Z,5.70
2023-06-09T06:59:00.834Z,6.30
2023-06-09T07:01:11.763Z,6.60
2023-06-09T07:02:13.953Z,5.72
2023-06-09T07:03:17.374Z,5.82
2023-06-09T07:04:19.277Z,5.93
2023-06-09T07:05:22.294Z,6.00
2023-06-09T07:06:24.190Z,5.90
2023-06-09T07:07:27.389Z,5.90
2023-06-09T07:08:29.232Z,5.57
2023-06-09T07:09:31.056Z,5.50
2023-06-09T07:10:32.856Z,5.80
2023-06-09T07:11:34.966Z,5.97
2023-06-09T07:12:37.082Z,5.88
2023-06-09T07:13:39.374Z,6.05
2023-06-09T07:14:41.812Z,5.88
2023-06-09T07:15:43.862Z,5.75
2023-06-09T07:16:45.905Z,5.40
2023-06-09T07:17:47.872Z,5.97
2023-06-09T07:18:50.187Z,5.97
2023-06-09T07:19:52.437Z,5.88
2023-06-09T07:20:54.726Z,5.85
2023-06-09T07:21:56.913Z,5.40
2023-06-09T07:22:59.684Z,5.28
2023-06-09T07:24:01.808Z,5.10
2023-06-09T07:25:03.914Z,5.72
2023-06-09T07:26:06.045Z,5.35
2023-06-09T07:27:09.049Z,5.87
2023-06-09T07:28:10.942Z,5.82
2023-06-09T07:29:12.941Z,5.95
2023-06-09T07:30:15.314Z,5.45
2023-06-09T07:31:17.663Z,5.40
2023-06-09T07:32:21.345Z,5.70
2023-06-09T07:33:23.221Z,5.93
2023-06-09T07:34:28.526Z,5.25
2023-06-09T07:35:31.757Z,5.55
2023-06-09T07:36:36.215Z,6.05
2023-06-09T07:37:40.686Z,5.97
2023-06-09T07:38:47.684Z,5.88
2023-06-09T07:39:51.030Z,5.72
2023-06-09T07:40:56.153Z,6.00
2023-06-09T07:41:57.999Z,6.05
2023-06-09T07:42:59.755Z,5.65
2023-06-09T07:44:01.645Z,5.75
2023-06-09T07:45:04.006Z,5.43
2023-06-09T07:46:06.033Z,5.80
2023-06-09T07:47:08.184Z,6.07
2023-06-09T07:48:10.954Z,5.97
2023-06-09T07:49:12.947Z,5.78
2023-06-09T07:50:15.555Z,6.10
2023-06-09T07:51:17.834Z,5.65
2023-06-09T07:52:24.367Z,6.15
2023-06-09T07:53:27.001Z,5.55
2023-06-09T07:54:29.306Z,6.32
2023-06-09T07:55:31.703Z,6.18
2023-06-09T07:56:34.272Z,6.25
2023-06-09T07:57:36.173Z,6.32
2023-06-09T07:58:38.532Z,5.97
2023-06-09T07:59:41.355Z,6.35
2023-06-09T08:00:43.169Z,6.32
2023-06-09T08:01:45.515Z,6.18
2023-06-09T08:02:47.479Z,6.30
2023-06-09T08:03:49.916Z,6.25
2023-06-09T08:04:52.398Z,5.78
2023-06-09T08:05:54.716Z,6.00
2023-06-09T08:07:00.085Z,5.70
2023-06-09T08:08:02.342Z,6.15
2023-06-09T08:09:04.840Z,5.97
2023-06-09T08:10:07.971Z,6.00
2023-06-09T08:11:10.921Z,5.95
2023-06-09T08:12:12.887Z,5.90
2023-06-09T08:13:16.739Z,6.10
2023-06-09T08:14:18.964Z,5.80
2023-06-09T08:15:21.785Z,6.18
2023-06-09T08:16:23.762Z,6.45
2023-06-09T08:17:25.719Z,6.20
2023-06-09T08:18:28.054Z,6.10
2023-06-09T08:19:29.995Z,6.07
2023-06-09T08:20:31.824Z,5.75
2023-06-09T08:21:33.650Z,5.80
2023-06-09T08:22:35.716Z,5.75
2023-06-09T08:23:37.637Z,5.53
2023-06-09T08:24:39.470Z,5.80
2023-06-09T08:25:42.649Z,5.32
2023-06-09T08:26:44.787Z,6.18
2023-06-09T08:27:47.725Z,5.82
2023-06-09T08:28:50.923Z,5.40
2023-06-09T08:29:52.934Z,5.90
2023-06-09T08:30:54.848Z,5.88
2023-06-09T08:31:56.762Z,5.85
2023-06-09T08:32:58.559Z,5.68
2023-06-09T08:34:00.605Z,5.60
2023-06-09T08:35:08.211Z,5.65
2023-06-09T08:36:10.385Z,5.13
2023-06-09T08:37:12.518Z,5.75
2023-06-09T08:38:14.367Z,5.70
2023-06-09T08:39:16.265Z,5.82
2023-06-09T08:40:18.240Z,5.77
2023-06-09T08:41:23.774Z,5.57
2023-06-09T08:42:27.273Z,5.05
2023-06-09T08:43:29.362Z,5.70
2023-06-09T08:44:36.707Z,5.13
2023-06-09T08:45:43.838Z,5.38
2023-06-09T08:46:49.971Z,5.15
2023-06-09T08:47:54.864Z,5.28
2023-06-09T08:48:59.138Z,5.22
2023-06-09T08:50:03.833Z,5.60
2023-06-09T08:51:06.063Z,5.53
2023-06-09T08:52:08.340Z,4.90
2023-06-09T08:53:11.258Z,5.55
2023-06-09T08:54:14.718Z,5.50
2023-06-09T08:55:16.699Z,5.47
2023-06-09T08:56:20.150Z,5.40
2023-06-09T08:57:22.498Z,5.35
2023-06-09T08:58:24.792Z,5.13
2023-06-09T08:59:31.424Z,5.40
2023-06-09T09:00:33.365Z,5.20
2023-06-09T09:01:37.239Z,4.97
2023-06-09T09:02:39.915Z,5.50
2023-06-09T09:03:42.001Z,5.20
2023-06-09T09:04:44.808Z,4.57
2023-06-09T09:05:46.820Z,4.55
2023-06-09T09:06:48.943Z,5.28
2023-06-09T09:07:51.010Z,4.88
2023-06-09T09:08:53.395Z,5.72
2023-06-09T09:09:55.719Z,5.13
2023-06-09T09:10:57.649Z,5.35
2023-06-09T09:12:00.992Z,5.20
2023-06-09T09:13:07.079Z,5.40
2023-06-09T09:14:14.198Z,5.05
2023-06-09T09:15:16.256Z,4.80
2023-06-09T09:16:18.435Z,5.03
2023-06-09T09:17:21.230Z,5.32
2023-06-09T09:18:23.094Z,4.80
2023-06-09T09:19:29.615Z,4.60
2023-06-09T09:20:36.913Z,4.57
2023-06-09T09:21:39.797Z,3.92
2023-06-09T09:22:51.939Z,4.33
2023-06-09T09:24:04.447Z,4.22
2023-06-09T09:25:08.162Z,4.63
2023-06-09T09:26:09.967Z,4.80
2023-06-09T09:27:23.935Z,4.35
2023-06-09T09:28:26.437Z,4.38
2023-06-09T09:29:31.052Z,4.75
2023-06-09T09:30:52.911Z,4.50
2023-06-09T09:32:05.703Z,4.13
2023-06-09T09:33:11.433Z,4.43
2023-06-09T09:34:14.427Z,4.47
2023-06-09T09:35:16.578Z,4.60
2023-06-09T09:36:19.804Z,4.30
2023-06-09T09:37:21.764Z,4.10
2023-06-09T09:38:26.277Z,4.15
2023-06-09T09:39:28.359Z,4.40
2023-06-09T09:40:30.464Z,4.30
2023-06-09T09:41:32.316Z,4.45
2023-06-09T09:42:34.242Z,4.43
2023-06-09T09:43:36.390Z,5.00
2023-06-09T09:44:44.186Z,4.53
2023-06-09T09:45:53.704Z,5.10
2023-06-09T09:47:00.249Z,4.90
2023-06-09T09:48:11.428Z,4.20
2023-06-09T09:49:23.559Z,4.38
2023-06-09T09:50:25.577Z,4.20
2023-06-09T09:51:27.399Z,4.50
2023-06-09T09:52:35.786Z,4.45
2023-06-09T09:53:37.833Z,4.43
2023-06-09T09:54:39.871Z,4.57
2023-06-09T09:55:46.586Z,4.13
2023-06-09T09:56:48.606Z,4.13
2023-06-09T09:57:50.947Z,4.40
2023-06-09T09:58:54.898Z,4.50
2023-06-09T09:59:57.430Z,4.00
2023-06-09T10:01:11.647Z,4.15
2023-06-09T10:02:18.524Z,4.18
2023-06-09T10:03:20.969Z,3.75
2023-06-09T10:04:25.816Z,4.22
2023-06-09T10:05:31.908Z,4.03
2023-06-09T10:06:36.007Z,3.33
2023-06-09T10:07:41.928Z,3.63
2023-06-09T10:08:44.393Z,3.67
2023-06-09T10:09:48.049Z,3.85
2023-06-09T10:10:51.928Z,3.50
2023-06-09T10:11:55.223Z,3.33
2023-06-09T10:12:58.920Z,4.10
2023-06-09T10:14:01.715Z,3.35
2023-06-09T10:15:05.585Z,3.47
2023-06-09T10:16:09.589Z,3.15
2023-06-09T10:17:11.783Z,3.13
2023-06-09T10:18:14.258Z,3.63
2023-06-09T10:19:18.940Z,3.40
2023-06-09T10:20:22.118Z,3.45
2023-06-09T10:21:24.481Z,3.38
2023-06-09T10:22:26.454Z,3.40
2023-06-09T10:23:29.997Z,3.28
2023-06-09T10:24:34.342Z,2.85
2023-06-09T10:25:36.880Z,3.10
2023-06-09T10:26:39.599Z,2.80
2023-06-09T10:27:42.181Z,2.90
2023-06-09T10:28:43.958Z,2.35
2023-06-09T10:29:48.464Z,2.50
2023-06-09T10:30:52.032Z,2.25
2023-06-09T10:31:56.016Z,2.35
2023-06-09T10:33:06.126Z,2.00
2023-06-09T10:34:10.502Z,2.30
2023-06-09T10:35:12.401Z,2.38
2023-06-09T10:36:15.880Z,2.30
2023-06-09T10:37:38.766Z,2.08
2023-06-09T10:38:41.848Z,2.30
2023-06-09T10:40:06.266Z,1.98
2023-06-09T10:41:31.982Z,2.40
2023-06-09T10:43:06.704Z,2.40
2023-06-09T10:44:20.661Z,2.15
2023-06-09T10:45:22.642Z,2.40
2023-06-09T10:46:42.486Z,2.30
2023-06-09T10:47:49.495Z,2.25
2023-06-09T10:48:51.339Z,2.47
2023-06-09T10:49:53.324Z,2.40
2023-06-09T10:51:30.444Z,2.80
2023-06-09T10:52:41.963Z,2.55
2023-06-09T10:54:19.241Z,2.75
2023-06-09T10:55:23.769Z,2.58
2023-06-09T10:56:53.333Z,2.30
2023-06-09T10:57:58.876Z,2.78
2023-06-09T10:59:00.699Z,2.70
2023-06-09T11:00:10.731Z,2.28
2023-06-09T11:01:12.693Z,2.55
2023-06-09T11:02:16.935Z,2.40
2023-06-09T11:03:18.776Z,2.63
2023-06-09T11:04:39.179Z,2.33
2023-06-09T11:05:46.402Z,2.60
2023-06-09T11:07:14.458Z,2.63
2023-06-09T11:08:16.959Z,2.50
2023-06-09T11:09:19.179Z,2.30
2023-06-09T11:10:20.902Z,2.40
2023-06-09T11:11:52.807Z,2.70
2023-06-09T11:12:56.669Z,2.63
2023-06-09T11:13:58.490Z,2.60
2023-06-09T11:15:00.828Z,2.70
2023-06-09T11:16:03.604Z,2.40
2023-06-09T11:17:39.282Z,2.40
2023-06-09T11:18:41.304Z,2.50
2023-06-09T11:19:43.418Z,2.60
2023-06-09T11:21:05.161Z,2.60
2023-06-09T11:22:09.474Z,2.28
2023-06-09T11:23:11.401Z,2.72
2023-06-09T11:24:13.514Z,2.88
2023-06-09T11:25:21.528Z,2.28
2023-06-09T11:26:24.561Z,2.60
2023-06-09T11:27:26.360Z,2.83
2023-06-09T11:28:28.189Z,2.63
2023-06-09T11:29:30.146Z,2.50
2023-06-09T11:30:33.398Z,2.60
2023-06-09T11:31:48.498Z,2.42
2023-06-09T11:32:54.708Z,2.50
2023-06-09T11:33:57.280Z,2.40
2023-06-09T11:34:59.505Z,2.50
2023-06-09T11:36:01.562Z,2.25
2023-06-09T11:37:04.680Z,2.63
2023-06-09T11:38:07.631Z,2.60
2023-06-09T11:39:10.076Z,2.47
2023-06-09T11:40:12.056Z,2.58
2023-06-09T11:41:15.607Z,2.55
2023-06-09T11:42:18.329Z,2.55
2023-06-09T11:43:21.501Z,2.65
2023-06-09T11:44:33.985Z,2.60
2023-06-09T11:45:37.703Z,2.35
2023-06-09T11:46:39.551Z,2.78
2023-06-09T11:47:43.002Z,2.60
2023-06-09T11:49:04.786Z,2.40
2023-06-09T11:50:10.834Z,2.38
2023-06-09T11:51:13.296Z,2.78
2023-06-09T11:52:15.080Z,2.72
2023-06-09T11:53:19.340Z,2.60
2023-06-09T11:54:22.537Z,2.60
2023-06-09T11:55:24.386Z,2.67
2023-06-09T11:56:26.260Z,2.40
2023-06-09T11:57:28.227Z,2.63
2023-06-09T11:58:30.116Z,2.53
2023-06-09T12:00:41.984Z,3.10
2023-06-09T12:01:43.869Z,2.92
2023-06-09T12:02:49.495Z,2.70
2023-06-09T12:03:51.526Z,3.00
2023-06-09T12:04:53.415Z,2.50
2023-06-09T12:05:55.296Z,2.75
2023-06-09T12:06:57.894Z,2.60
2023-06-09T12:08:01.704Z,2.80
2023-06-09T12:09:23.658Z,2.70
2023-06-09T12:10:28.810Z,3.00
2023-06-09T12:11:30.729Z,2.53
2023-06-09T12:12:42.236Z,2.42
2023-06-09T12:13:50.229Z,2.63
2023-06-09T12:14:52.300Z,2.65
2023-06-09T12:15:54.256Z,2.45
2023-06-09T12:16:57.975Z,2.90
2023-06-09T12:18:04.580Z,2.95
2023-06-09T12:19:06.578Z,2.90
2023-06-09T12:20:35.622Z,2.77
2023-06-09T12:21:37.435Z,2.70
2023-06-09T12:22:40.186Z,2.75
2023-06-09T12:23:42.845Z,3.38
2023-06-09T12:24:45.272Z,2.92
2023-06-09T12:25:52.904Z,2.88
2023-06-09T12:26:56.682Z,2.78
2023-06-09T12:28:19.702Z,2.70
2023-06-09T12:29:28.474Z,2.58
2023-06-09T12:30:48.991Z,2.65
2023-06-09T12:31:50.895Z,2.30
2023-06-09T12:32:52.794Z,2.78
2023-06-09T12:33:57.624Z,2.80
2023-06-09T12:35:01.523Z,2.67
2023-06-09T12:36:12.398Z,2.72
2023-06-09T12:37:14.210Z,2.55
2023-06-09T12:38:18.251Z,2.78
2023-06-09T12:39:21.456Z,2.40
2023-06-09T12:40:23.607Z,2.30
2023-06-09T12:41:25.414Z,2.42
2023-06-09T12:42:27.208Z,2.20
2023-06-09T12:43:42.920Z,2.50
2023-06-09T12:44:49.025Z,2.72
2023-06-09T12:45:55.173Z,2.80
2023-06-09T12:46:57.099Z,2.75
2023-06-09T12:48:05.643Z,2.70
2023-06-09T12:49:09.401Z,3.00
2023-06-09T12:50:14.534Z,3.00
2023-06-09T12:51:16.333Z,3.00
2023-06-09T12:52:18.245Z,2.25
2023-06-09T12:53:20.085Z,2.80
2023-06-09T12:54:22.342Z,2.30
2023-06-09T12:55:24.516Z,2.40
2023-06-09T12:56:28.174Z,2.28
2023-06-09T12:57:30.004Z,1.95
2023-06-09T12:58:31.764Z,2.10
2023-06-09T12:59:33.793Z,2.10
2023-06-09T13:00:39.409Z,1.90
2023-06-09T13:01:41.423Z,1.90
2023-06-09T13:02:44.689Z,1.90
2023-06-09T13:03:47.913Z,1.73
2023-06-09T13:04:49.947Z,1.50
2023-06-09T13:05:51.848Z,1.70
2023-06-09T13:06:54.449Z,1.40
2023-06-09T13:07:56.272Z,1.60
2023-06-09T13:08:58.110Z,1.70
2023-06-09T13:10:00.355Z,2.00
2023-06-09T13:11:02.154Z,1.70
2023-06-09T13:12:04.192Z,1.70
2023-06-09T13:13:06.079Z,1.60
2023-06-09T13:14:07.854Z,1.60
2023-06-09T13:15:09.990Z,1.60
2023-06-09T13:16:11.832Z,1.70
2023-06-09T13:17:13.655Z,1.77
2023-06-09T13:18:16.209Z,1.40
2023-06-09T13:19:18.122Z,1.45
2023-06-09T13:20:21.122Z,1.65
2023-06-09T13:21:42.301Z,1.50
2023-06-09T13:22:45.596Z,1.40
2023-06-09T13:23:48.003Z,1.70
2023-06-09T13:24:49.946Z,1.50
2023-06-09T13:25:51.840Z,1.40
2023-06-09T13:26:53.657Z,1.45
2023-06-09T13:27:55.546Z,1.48
2023-06-09T13:28:57.316Z,1.45
2023-06-09T13:29:59.122Z,1.52
2023-06-09T13:31:02.058Z,1.33
2023-06-09T13:32:04.166Z,1.52
2023-06-09T13:33:06.627Z,1.67
2023-06-09T13:34:08.887Z,1.48
2023-06-09T13:35:12.029Z,1.90
2023-06-09T13:36:14.054Z,1.50
2023-06-09T13:37:15.929Z,1.42
2023-06-09T13:38:17.733Z,1.40
2023-06-09T13:39:19.601Z,1.65
2023-06-09T13:40:21.488Z,1.80
2023-06-09T13:41:23.577Z,1.40
2023-06-09T13:42:25.514Z,1.40
2023-06-09T13:43:27.556Z,1.70
2023-06-09T13:44:29.433Z,1.50
2023-06-09T13:45:31.352Z,1.77
2023-06-09T13:46:33.665Z,1.50
2023-06-09T13:47:35.493Z,1.77
2023-06-09T13:48:37.503Z,1.50
2023-06-09T13:49:39.794Z,1.90
2023-06-09T13:50:41.766Z,1.40
2023-06-09T13:51:43.547Z,1.50
2023-06-09T13:52:45.493Z,1.40
2023-06-09T13:53:47.266Z,1.65
2023-06-09T13:54:49.607Z,1.80
2023-06-09T13:55:51.433Z,1.73
2023-06-09T13:56:53.230Z,1.48
2023-06-09T13:57:55.063Z,1.70
2023-06-09T13:58:56.881Z,1.75
2023-06-09T13:59:58.732Z,1.88
2023-06-09T14:01:00.548Z,1.83
2023-06-09T14:02:02.506Z,1.70
2023-06-09T14:03:04.889Z,2.15
2023-06-09T14:04:07.511Z,1.45
2023-06-09T14:05:10.856Z,1.67
2023-06-09T14:06:13.032Z,2.07
2023-06-09T14:07:14.823Z,1.92
2023-06-09T14:08:16.783Z,1.80
2023-06-09T14:09:18.579Z,1.77
2023-06-09T14:10:21.565Z,1.70
2023-06-09T14:11:23.688Z,1.90
2023-06-09T14:12:25.597Z,1.83
2023-06-09T14:13:27.381Z,2.10
2023-06-09T14:14:29.172Z,1.90